Forest Junction, Wisconsin
Current Conditions -  °F | °C
As of 9:45 PM on Wednesday 28 Jan 2015 (Local Time) from KATW Reporting Station
Overcast Overcast  
Wind Chill: 23°   Ceiling: 3000
Heat Index: 30°   Visibility: 10mi
Dew Point: 23°   Wind: 8mph
Humidity: 75%   Direction: 140°SE
Pressure: 29.86"   Gusts: NA
Location:  44.21°N, 88.14°W
Report Text: KATW 290345Z 14007KT 10SM BKN030 OVC120 M01/M05 A2986
Loading
Personal Weather Stations






























Interactive Weather Map New forecast layout! Learn more

10-Day Weather Forecast

Advertisements
Track Severe Weather on mobile